sensor_id;sensor_type;location;lat;lon;timestamp;temperature;humidity
66337;SHT30;53139;45.576;5.304;2022-11-12T11:11:35;16.52;70.61
66337;SHT30;53139;45.576;5.304;2022-11-12T11:14:35;17.36;71.96
66337;SHT30;53139;45.576;5.304;2022-11-12T11:17:37;16.92;72.31
66337;SHT30;53139;45.576;5.304;2022-11-12T11:20:45;17.25;73.02
66337;SHT30;53139;45.576;5.304;2022-11-12T11:30:30;17.70;71.46
66337;SHT30;53139;45.576;5.304;2022-11-12T11:40:14;17.71;68.25
66337;SHT30;53139;45.576;5.304;2022-11-12T11:53:25;17.33;70.39
66337;SHT30;53139;45.576;5.304;2022-11-12T11:56:31;17.25;70.69
66337;SHT30;53139;45.576;5.304;2022-11-12T12:09:27;18.40;67.67
66337;SHT30;53139;45.576;5.304;2022-11-12T12:20:15;18.98;65.23
66337;SHT30;53139;45.576;5.304;2022-11-12T12:23:39;18.81;64.18
66337;SHT30;53139;45.576;5.304;2022-11-12T12:26:45;19.28;65.86
66337;SHT30;53139;45.576;5.304;2022-11-12T12:30:18;19.45;67.80
66337;SHT30;53139;45.576;5.304;2022-11-12T12:33:29;19.16;67.66
66337;SHT30;53139;45.576;5.304;2022-11-12T12:36:37;20.00;69.54
66337;SHT30;53139;45.576;5.304;2022-11-12T12:39:57;19.55;67.18
66337;SHT30;53139;45.576;5.304;2022-11-12T12:43:06;19.50;69.93
66337;SHT30;53139;45.576;5.304;2022-11-12T12:46:13;19.53;70.11
66337;SHT30;53139;45.576;5.304;2022-11-12T12:49:20;18.90;67.15
66337;SHT30;53139;45.576;5.304;2022-11-12T12:52:21;18.64;64.99
66337;SHT30;53139;45.576;5.304;2022-11-12T12:56:00;18.45;67.24
66337;SHT30;53139;45.576;5.304;2022-11-12T12:59:01;18.33;69.42
66337;SHT30;53139;45.576;5.304;2022-11-12T13:02:02;18.29;68.87
66337;SHT30;53139;45.576;5.304;2022-11-12T13:05:03;18.11;69.11
66337;SHT30;53139;45.576;5.304;2022-11-12T13:08:19;17.83;66.60
66337;SHT30;53139;45.576;5.304;2022-11-12T13:15:11;17.81;67.77
66337;SHT30;53139;45.576;5.304;2022-11-12T13:21:38;17.56;69.72
66337;SHT30;53139;45.576;5.304;2022-11-12T13:28:10;17.33;68.43
66337;SHT30;53139;45.576;5.304;2022-11-12T13:31:27;17.36;71.29
66337;SHT30;53139;45.576;5.304;2022-11-12T13:34:31;17.51;71.57
66337;SHT30;53139;45.576;5.304;2022-11-12T13:37:32;17.51;68.01
66337;SHT30;53139;45.576;5.304;2022-11-12T13:43:55;17.71;69.38
66337;SHT30;53139;45.576;5.304;2022-11-12T13:46:56;17.84;70.74
66337;SHT30;53139;45.576;5.304;2022-11-12T13:50:02;17.53;70.06
66337;SHT30;53139;45.576;5.304;2022-11-12T13:53:07;17.35;69.98
66337;SHT30;53139;45.576;5.304;2022-11-12T13:56:29;17.11;68.48
66337;SHT30;53139;45.576;5.304;2022-11-12T13:59:30;17.67;69.43
66337;SHT30;53139;45.576;5.304;2022-11-12T14:03:16;17.26;67.68
66337;SHT30;53139;45.576;5.304;2022-11-12T14:06:42;17.32;70.59
66337;SHT30;53139;45.576;5.304;2022-11-12T14:16:54;18.57;67.42
66337;SHT30;53139;45.576;5.304;2022-11-12T14:23:10;18.75;65.49
66337;SHT30;53139;45.576;5.304;2022-11-12T14:26:12;18.63;67.38
66337;SHT30;53139;45.576;5.304;2022-11-12T14:29:17;18.00;63.65
66337;SHT30;53139;45.576;5.304;2022-11-12T14:32:17;17.63;63.96
66337;SHT30;53139;45.576;5.304;2022-11-12T14:38:30;17.81;65.05
66337;SHT30;53139;45.576;5.304;2022-11-12T14:41:34;18.24;64.94
66337;SHT30;53139;45.576;5.304;2022-11-12T14:44:37;17.36;65.71
66337;SHT30;53139;45.576;5.304;2022-11-12T14:47:37;17.37;68.86
66337;SHT30;53139;45.576;5.304;2022-11-12T14:50:37;17.46;69.91
66337;SHT30;53139;45.576;5.304;2022-11-12T14:53:41;17.23;68.11
66337;SHT30;53139;45.576;5.304;2022-11-12T14:56:44;16.82;70.13
66337;SHT30;53139;45.576;5.304;2022-11-12T14:59:46;17.23;73.87
66337;SHT30;53139;45.576;5.304;2022-11-12T15:02:47;17.28;80.78
66337;SHT30;53139;45.576;5.304;2022-11-12T15:06:09;16.84;80.88
66337;SHT30;53139;45.576;5.304;2022-11-12T15:13:14;16.57;85.05
66337;SHT30;53139;45.576;5.304;2022-11-12T15:16:20;16.25;83.97
66337;SHT30;53139;45.576;5.304;2022-11-12T15:19:48;15.98;84.01
66337;SHT30;53139;45.576;5.304;2022-11-12T15:22:51;15.82;85.93
66337;SHT30;53139;45.576;5.304;2022-11-12T15:25:57;15.22;81.02
66337;SHT30;53139;45.576;5.304;2022-11-12T15:35:42;14.91;87.37
66337;SHT30;53139;45.576;5.304;2022-11-12T15:38:54;14.65;89.20
66337;SHT30;53139;45.576;5.304;2022-11-12T15:42:03;14.59;88.81
66337;SHT30;53139;45.576;5.304;2022-11-12T15:45:13;14.59;90.88
66337;SHT30;53139;45.576;5.304;2022-11-12T15:48:14;14.32;88.62
66337;SHT30;53139;45.576;5.304;2022-11-12T15:51:16;14.06;87.21
66337;SHT30;53139;45.576;5.304;2022-11-12T15:54:16;13.81;87.25
66337;SHT30;53139;45.576;5.304;2022-11-12T15:57:20;13.95;90.20
66337;SHT30;53139;45.576;5.304;2022-11-12T16:00:25;13.46;88.52
66337;SHT30;53139;45.576;5.304;2022-11-12T16:03:29;13.24;88.89
66337;SHT30;53139;45.576;5.304;2022-11-12T16:06:30;13.37;88.36
66337;SHT30;53139;45.576;5.304;2022-11-12T16:09:30;13.22;88.44
66337;SHT30;53139;45.576;5.304;2022-11-12T16:12:31;13.22;89.41
66337;SHT30;53139;45.576;5.304;2022-11-12T16:15:31;13.28;93.45
66337;SHT30;53139;45.576;5.304;2022-11-12T16:18:32;12.84;90.33
66337;SHT30;53139;45.576;5.304;2022-11-12T16:21:32;12.40;91.67
66337;SHT30;53139;45.576;5.304;2022-11-12T16:24:33;12.44;91.91
66337;SHT30;53139;45.576;5.304;2022-11-12T16:27:34;12.68;93.96
66337;SHT30;53139;45.576;5.304;2022-11-12T16:30:35;12.12;90.92
66337;SHT30;53139;45.576;5.304;2022-11-12T16:33:35;12.17;90.75
66337;SHT30;53139;45.576;5.304;2022-11-12T16:36:38;12.41;91.20
66337;SHT30;53139;45.576;5.304;2022-11-12T16:39:38;12.13;91.02
66337;SHT30;53139;45.576;5.304;2022-11-12T16:42:39;12.08;92.11
66337;SHT30;53139;45.576;5.304;2022-11-12T16:45:44;12.30;94.07
66337;SHT30;53139;45.576;5.304;2022-11-12T16:48:45;12.03;93.44
66337;SHT30;53139;45.576;5.304;2022-11-12T16:51:45;11.86;92.75
66337;SHT30;53139;45.576;5.304;2022-11-12T16:54:46;11.82;94.10
66337;SHT30;53139;45.576;5.304;2022-11-12T16:57:46;11.47;93.76
66337;SHT30;53139;45.576;5.304;2022-11-12T17:00:47;11.65;94.21
66337;SHT30;53139;45.576;5.304;2022-11-12T17:03:50;11.88;93.84
66337;SHT30;53139;45.576;5.304;2022-11-12T17:06:50;11.67;93.42
66337;SHT30;53139;45.576;5.304;2022-11-12T17:09:50;11.71;95.66
66337;SHT30;53139;45.576;5.304;2022-11-12T17:12:52;11.70;95.33
66337;SHT30;53139;45.576;5.304;2022-11-12T17:15:55;11.60;93.75
66337;SHT30;53139;45.576;5.304;2022-11-12T17:18:58;11.55;94.03
66337;SHT30;53139;45.576;5.304;2022-11-12T17:21:59;11.47;94.63
66337;SHT30;53139;45.576;5.304;2022-11-12T17:24:59;11.50;96.70
66337;SHT30;53139;45.576;5.304;2022-11-12T17:27:59;11.31;96.70
66337;SHT30;53139;45.576;5.304;2022-11-12T17:34:12;11.23;95.18
66337;SHT30;53139;45.576;5.304;2022-11-12T17:37:12;11.16;95.25
66337;SHT30;53139;45.576;5.304;2022-11-12T17:40:14;10.99;95.74
66337;SHT30;53139;45.576;5.304;2022-11-12T17:43:14;11.23;95.92
66337;SHT30;53139;45.576;5.304;2022-11-12T17:46:15;11.22;95.82
66337;SHT30;53139;45.576;5.304;2022-11-12T17:49:15;11.02;95.17
66337;SHT30;53139;45.576;5.304;2022-11-12T17:52:16;10.99;96.24
66337;SHT30;53139;45.576;5.304;2022-11-12T17:55:16;11.09;95.30
66337;SHT30;53139;45.576;5.304;2022-11-12T17:58:17;11.16;95.09
66337;SHT30;53139;45.576;5.304;2022-11-12T18:01:23;10.93;95.32
66337;SHT30;53139;45.576;5.304;2022-11-12T18:04:23;11.00;95.71
66337;SHT30;53139;45.576;5.304;2022-11-12T18:07:24;10.98;95.12
66337;SHT30;53139;45.576;5.304;2022-11-12T18:10:24;11.05;95.98
66337;SHT30;53139;45.576;5.304;2022-11-12T18:13:25;10.93;96.01
66337;SHT30;53139;45.576;5.304;2022-11-12T18:16:27;10.92;97.08
66337;SHT30;53139;45.576;5.304;2022-11-12T18:19:27;10.85;97.18
66337;SHT30;53139;45.576;5.304;2022-11-12T18:22:28;10.55;96.24
66337;SHT30;53139;45.576;5.304;2022-11-12T18:25:28;10.43;97.01
66337;SHT30;53139;45.576;5.304;2022-11-12T18:28:29;10.71;96.82
66337;SHT30;53139;45.576;5.304;2022-11-12T18:31:29;10.76;97.39
66337;SHT30;53139;45.576;5.304;2022-11-12T18:34:30;10.55;95.49
66337;SHT30;53139;45.576;5.304;2022-11-12T18:37:31;10.37;95.62
66337;SHT30;53139;45.576;5.304;2022-11-12T18:40:31;10.43;95.94
66337;SHT30;53139;45.576;5.304;2022-11-12T18:43:31;10.44;97.91
66337;SHT30;53139;45.576;5.304;2022-11-12T18:46:32;10.16;96.36
66337;SHT30;53139;45.576;5.304;2022-11-12T18:49:32;10.43;96.99
66337;SHT30;53139;45.576;5.304;2022-11-12T18:52:33;10.24;96.10
66337;SHT30;53139;45.576;5.304;2022-11-12T18:55:33;10.10;96.34
66337;SHT30;53139;45.576;5.304;2022-11-12T18:58:33;10.16;97.10
66337;SHT30;53139;45.576;5.304;2022-11-12T19:01:34;9.98;96.24
66337;SHT30;53139;45.576;5.304;2022-11-12T19:04:34;10.09;97.22
66337;SHT30;53139;45.576;5.304;2022-11-12T19:07:35;9.88;96.30
66337;SHT30;53139;45.576;5.304;2022-11-12T19:10:35;9.86;96.98
66337;SHT30;53139;45.576;5.304;2022-11-12T19:13:36;9.90;96.82
66337;SHT30;53139;45.576;5.304;2022-11-12T19:16:39;9.77;97.04
66337;SHT30;53139;45.576;5.304;2022-11-12T19:19:41;9.63;96.59
66337;SHT30;53139;45.576;5.304;2022-11-12T19:22:41;9.74;97.79
66337;SHT30;53139;45.576;5.304;2022-11-12T19:25:42;9.79;97.20
66337;SHT30;53139;45.576;5.304;2022-11-12T19:28:43;9.55;97.28
66337;SHT30;53139;45.576;5.304;2022-11-12T19:31:44;9.55;98.07
66337;SHT30;53139;45.576;5.304;2022-11-12T19:34:45;9.65;98.12
66337;SHT30;53139;45.576;5.304;2022-11-12T19:37:45;9.61;98.11
66337;SHT30;53139;45.576;5.304;2022-11-12T19:40:46;9.67;97.93
66337;SHT30;53139;45.576;5.304;2022-11-12T19:43:46;9.78;97.92
66337;SHT30;53139;45.576;5.304;2022-11-12T19:46:47;9.59;97.80
66337;SHT30;53139;45.576;5.304;2022-11-12T19:49:47;9.50;98.02
66337;SHT30;53139;45.576;5.304;2022-11-12T19:52:47;9.54;97.89
66337;SHT30;53139;45.576;5.304;2022-11-12T19:55:48;9.50;98.39
66337;SHT30;53139;45.576;5.304;2022-11-12T19:58:48;9.59;97.85
66337;SHT30;53139;45.576;5.304;2022-11-12T20:01:49;9.54;98.25
66337;SHT30;53139;45.576;5.304;2022-11-12T20:04:50;9.41;98.67
66337;SHT30;53139;45.576;5.304;2022-11-12T20:07:55;9.33;97.98
66337;SHT30;53139;45.576;5.304;2022-11-12T20:10:57;9.50;97.81
66337;SHT30;53139;45.576;5.304;2022-11-12T20:13:57;9.50;97.81
66337;SHT30;53139;45.576;5.304;2022-11-12T20:16:57;9.26;98.06
66337;SHT30;53139;45.576;5.304;2022-11-12T20:19:58;9.23;98.55
66337;SHT30;53139;45.576;5.304;2022-11-12T20:22:58;9.31;98.17
66337;SHT30;53139;45.576;5.304;2022-11-12T20:26:04;9.33;98.18
66337;SHT30;53139;45.576;5.304;2022-11-12T20:29:05;9.33;98.52
66337;SHT30;53139;45.576;5.304;2022-11-12T20:32:05;9.31;98.24
66337;SHT30;53139;45.576;5.304;2022-11-12T20:35:05;9.17;98.18
66337;SHT30;53139;45.576;5.304;2022-11-12T20:38:06;9.16;98.94
66337;SHT30;53139;45.576;5.304;2022-11-12T20:41:12;9.13;99.42
66337;SHT30;53139;45.576;5.304;2022-11-12T20:44:13;8.97;98.74
66337;SHT30;53139;45.576;5.304;2022-11-12T20:47:13;9.00;98.62
66337;SHT30;53139;45.576;5.304;2022-11-12T20:50:13;8.96;99.00
66337;SHT30;53139;45.576;5.304;2022-11-12T20:53:14;8.86;98.39
66337;SHT30;53139;45.576;5.304;2022-11-12T20:56:15;8.85;98.98
66337;SHT30;53139;45.576;5.304;2022-11-12T20:59:16;9.00;98.61
66337;SHT30;53139;45.576;5.304;2022-11-12T21:02:16;9.02;98.61
66337;SHT30;53139;45.576;5.304;2022-11-12T21:05:17;9.13;98.37
66337;SHT30;53139;45.576;5.304;2022-11-12T21:08:17;9.19;98.40
66337;SHT30;53139;45.576;5.304;2022-11-12T21:11:21;9.07;98.50
66337;SHT30;53139;45.576;5.304;2022-11-12T21:14:22;9.07;98.26
66337;SHT30;53139;45.576;5.304;2022-11-12T21:17:22;9.03;98.28
66337;SHT30;53139;45.576;5.304;2022-11-12T21:20:22;9.00;98.50
66337;SHT30;53139;45.576;5.304;2022-11-12T21:23:23;8.97;98.60
66337;SHT30;53139;45.576;5.304;2022-11-12T21:26:23;9.00;98.56
66337;SHT30;53139;45.576;5.304;2022-11-12T21:29:23;8.99;98.35
66337;SHT30;53139;45.576;5.304;2022-11-12T21:32:24;8.93;98.73
66337;SHT30;53139;45.576;5.304;2022-11-12T21:35:25;8.95;98.47
66337;SHT30;53139;45.576;5.304;2022-11-12T21:38:26;8.95;98.30
66337;SHT30;53139;45.576;5.304;2022-11-12T21:41:27;8.88;98.83
66337;SHT30;53139;45.576;5.304;2022-11-12T21:44:30;8.89;98.30
66337;SHT30;53139;45.576;5.304;2022-11-12T21:47:30;8.89;98.33
66337;SHT30;53139;45.576;5.304;2022-11-12T21:50:31;8.86;98.24
66337;SHT30;53139;45.576;5.304;2022-11-12T21:53:32;8.96;98.60
66337;SHT30;53139;45.576;5.304;2022-11-12T21:56:33;8.96;98.78
66337;SHT30;53139;45.576;5.304;2022-11-12T21:59:34;8.92;99.00
66337;SHT30;53139;45.576;5.304;2022-11-12T22:02:34;8.76;98.86
66337;SHT30;53139;45.576;5.304;2022-11-12T22:05:35;8.96;98.72
66337;SHT30;53139;45.576;5.304;2022-11-12T22:08:36;8.85;99.05
66337;SHT30;53139;45.576;5.304;2022-11-12T22:11:36;8.82;98.71
66337;SHT30;53139;45.576;5.304;2022-11-12T22:14:37;8.75;98.80
66337;SHT30;53139;45.576;5.304;2022-11-12T22:17:37;8.80;98.56
66337;SHT30;53139;45.576;5.304;2022-11-12T22:20:37;8.79;98.95
66337;SHT30;53139;45.576;5.304;2022-11-12T22:23:38;8.73;98.57
66337;SHT30;53139;45.576;5.304;2022-11-12T22:26:38;8.76;98.67
66337;SHT30;53139;45.576;5.304;2022-11-12T22:29:38;8.68;99.42
66337;SHT30;53139;45.576;5.304;2022-11-12T22:32:39;8.68;98.68
66337;SHT30;53139;45.576;5.304;2022-11-12T22:35:39;8.73;98.62
66337;SHT30;53139;45.576;5.304;2022-11-12T22:38:42;8.73;99.83
66337;SHT30;53139;45.576;5.304;2022-11-12T22:41:42;8.76;98.65
66337;SHT30;53139;45.576;5.304;2022-11-12T22:44:43;8.72;98.64
66337;SHT30;53139;45.576;5.304;2022-11-12T22:47:43;8.73;98.61
66337;SHT30;53139;45.576;5.304;2022-11-12T22:50:43;8.72;98.62
66337;SHT30;53139;45.576;5.304;2022-11-12T22:53:44;8.72;99.04
66337;SHT30;53139;45.576;5.304;2022-11-12T22:56:45;8.65;98.85
66337;SHT30;53139;45.576;5.304;2022-11-12T22:59:45;8.67;99.07
66337;SHT30;53139;45.576;5.304;2022-11-12T23:02:46;8.65;98.96
66337;SHT30;53139;45.576;5.304;2022-11-12T23:05:46;8.62;99.24
66337;SHT30;53139;45.576;5.304;2022-11-12T23:08:47;8.69;98.89
66337;SHT30;53139;45.576;5.304;2022-11-12T23:11:47;8.64;99.16
66337;SHT30;53139;45.576;5.304;2022-11-12T23:14:48;8.67;98.71
66337;SHT30;53139;45.576;5.304;2022-11-12T23:17:53;8.67;98.97
66337;SHT30;53139;45.576;5.304;2022-11-12T23:20:53;8.64;98.94
66337;SHT30;53139;45.576;5.304;2022-11-12T23:23:57;8.65;98.74
66337;SHT30;53139;45.576;5.304;2022-11-12T23:30:51;8.57;98.76
66337;SHT30;53139;45.576;5.304;2022-11-12T23:33:54;8.62;98.70
66337;SHT30;53139;45.576;5.304;2022-11-12T23:36:55;8.61;98.72
66337;SHT30;53139;45.576;5.304;2022-11-12T23:39:56;8.47;98.60
66337;SHT30;53139;45.576;5.304;2022-11-12T23:42:56;8.38;98.98
66337;SHT30;53139;45.576;5.304;2022-11-12T23:45:57;8.37;98.86
66337;SHT30;53139;45.576;5.304;2022-11-12T23:48:57;8.34;98.89
66337;SHT30;53139;45.576;5.304;2022-11-12T23:51:57;8.22;98.51
66337;SHT30;53139;45.576;5.304;2022-11-12T23:55:06;8.26;99.22
66337;SHT30;53139;45.576;5.304;2022-11-12T23:58:09;8.24;99.52
